Friday, January 19, 2018, 7:24 AM GMT
Back to Local

CWVQ, Ste Anne De Bell 1

Location: , , Canada Lat: 45.433
Local Time: 7:24 AM GMT ( 7:24 GMT) Lon: -73.933
Time Zone: GMT Elev: 127 ft

Show me the last for .
Show Coded

Time T Td Feel RH Dir Speed Gust Alt SLP Vis Weather Sky Remarks
2018-01-19 07:00 24 22 16 92 240° 7 - - 29.91 0 None
2018-01-19 06:00 24 20 14 85 240° 9 - - 29.91 0 None
2018-01-19 05:00 24 20 14 85 240° 9 - - 29.92 0 None
2018-01-19 04:00 23 20 14 86 240° 8 - - 29.92 0 None
2018-01-19 03:00 23 20 13 85 240° 9 - - 29.92 0 None
2018-01-19 02:00 23 20 15 87 240° 6 - - 29.92 0 None
2018-01-19 01:00 24 20 19 84 230° 3 - - 29.92 0 None
2018-01-19 00:00 22 19 15 88 250° 6 - - 29.93 0 None
2018-01-18 23:00 24 21 17 87 240° 6 - - 29.92 0 None
2018-01-18 22:00 24 21 16 85 240° 8 - - 29.92 0 None
2018-01-18 21:00 25 21 11 84 240° 12 17 - 29.92 0 None
2018-01-18 20:00 25 21 15 84 240° 10 - - 29.91 0 None
2018-01-18 19:00 26 22 17 84 240° 8 - - 29.91 0 None
2018-01-18 18:00 25 20 11 83 250° 10 18 - 29.91 0 None
2018-01-18 17:00 26 20 16 79 250° 9 - - 29.93 0 None
2018-01-18 16:00 24 20 13 86 240° 10 - - 29.94 0 None
2018-01-18 15:00 23 20 9 86 250° 10 17 - 29.95 0 None
2018-01-18 14:00 23 20 14 85 250° 8 - - 29.94 0 None
2018-01-18 13:00 23 19 13 84 250° 9 - - 29.94 0 None
2018-01-18 12:00 23 19 13 84 250° 9 - - 29.93 0 None
2018-01-18 11:00 23 19 9 85 240° 10 17 - 29.93 0 Peak wind: 19 mph (17 kts) from 220° at 11 min
2018-01-18 10:00 24 19 10 81 230° 9 17 - 29.93 0 Peak wind: 20 mph (18 kts) from 200° at 20 min
2018-01-18 09:00 22 19 11 87 230° 10 - - 29.96 0 None
2018-01-18 08:00 22 19 11 88 230° 10 - - 29.98 0 None

Support USWX by starting your Amazon purchase here.